Palmetto, Georgia
Current Conditions -  °F | °C
As of 4:53 AM on Saturday 01 Nov 2014 (Local Time) from KFFC Reporting Station
Scattered Clouds Scattered Clouds  
Wind Chill: 31°   Ceiling: Unl
Heat Index: 39°   Visibility: 10mi
Dew Point: 28°   Wind: 13mph
Humidity: 65%   Direction: 290°WNW
Pressure: 29.97"   Gusts: 21mph
Location:  33.52°N, 84.67°W
Report Text: KFFC 010853Z AUTO 29011G18KT 10SM SCT043 04/M02 A2997 RMK AO2 SLP149 T00391022 56009
Loading
Personal Weather Stations






























Interactive Weather Map
Tropical Storm Tracking
New forecast layout! Learn more

10-Day Weather Forecast

Advertisements
Track Severe Weather on mobile